createdAt,value
2022-12-12T00:01:28.382Z,99297.47
2022-12-12T00:03:56.054Z,99299.34
2022-12-12T00:06:23.770Z,99296.72
2022-12-12T00:08:51.460Z,99298.47
2022-12-12T00:11:19.415Z,99296.72
2022-12-12T00:13:47.017Z,99300.19
2022-12-12T00:16:14.695Z,99301.97
2022-12-12T00:18:42.448Z,99298.47
2022-12-12T00:21:10.213Z,99298.56
2022-12-12T00:23:39.205Z,99306.44
2022-12-12T00:26:06.777Z,99307.28
2022-12-12T00:28:34.439Z,99304.75
2022-12-12T00:31:02.174Z,99308.31
2022-12-12T00:33:29.796Z,99315.41
2022-12-12T00:35:58.028Z,99311.09
2022-12-12T00:38:26.068Z,99311.16
2022-12-12T00:40:53.708Z,99313.88
2022-12-12T00:43:21.294Z,99317.44
2022-12-12T00:45:48.936Z,99319.28
2022-12-12T00:48:16.954Z,99314.97
2022-12-12T00:50:44.566Z,99311.56
2022-12-12T00:53:13.323Z,99312.50
2022-12-12T00:55:41.006Z,99313.44
2022-12-12T00:58:08.582Z,99323.94
2022-12-12T01:00:41.501Z,99327.38
2022-12-12T01:03:09.246Z,99326.56
2022-12-12T01:05:36.937Z,99323.94
2022-12-12T01:08:04.635Z,99324.88
2022-12-12T01:10:32.244Z,99322.38
2022-12-12T01:13:00.190Z,99323.25
2022-12-12T01:15:27.816Z,99333.72
2022-12-12T01:17:55.423Z,99330.25
2022-12-12T01:20:23.010Z,99335.50
2022-12-12T01:22:51.138Z,99337.19
2022-12-12T01:25:21.915Z,99337.19
2022-12-12T01:27:49.577Z,99332.81
2022-12-12T01:30:18.668Z,99336.34
2022-12-12T01:32:46.250Z,99334.56
2022-12-12T01:35:14.218Z,99337.19
2022-12-12T01:37:42.581Z,99331.13
2022-12-12T01:40:10.125Z,99334.66
2022-12-12T01:42:37.687Z,99339.06
2022-12-12T01:45:05.339Z,99342.44
2022-12-12T01:47:32.907Z,99340.75
2022-12-12T01:50:01.335Z,99339.91
2022-12-12T01:52:28.966Z,99341.59
2022-12-12T01:54:56.559Z,99341.59
2022-12-12T01:57:24.157Z,99341.59
2022-12-12T01:59:51.758Z,99349.47
2022-12-12T02:02:20.358Z,99350.28
2022-12-12T02:04:47.979Z,99346.00
2022-12-12T02:07:17.907Z,99354.72
2022-12-12T02:09:45.478Z,99352.16
2022-12-12T02:12:13.054Z,99353.91
2022-12-12T02:14:41.030Z,99358.34
2022-12-12T02:17:08.643Z,99359.28
2022-12-12T02:19:36.203Z,99351.53
2022-12-12T02:22:03.824Z,99346.28
2022-12-12T02:24:31.391Z,99349.78
2022-12-12T02:27:01.870Z,99356.78
2022-12-12T02:29:29.797Z,99354.28
2022-12-12T02:31:57.406Z,99362.97
2022-12-12T02:34:25.004Z,99357.81
2022-12-12T02:36:52.610Z,99356.97
2022-12-12T02:39:20.554Z,99361.34
2022-12-12T02:41:48.158Z,99357.81
2022-12-12T02:44:15.765Z,99357.88
2022-12-12T02:46:43.413Z,99355.28
2022-12-12T02:49:11.081Z,99357.88
2022-12-12T02:51:39.475Z,99357.88
2022-12-12T02:54:07.061Z,99360.59
2022-12-12T02:56:34.655Z,99355.34
2022-12-12T02:59:02.293Z,99358.81
2022-12-12T03:01:29.891Z,99368.31
2022-12-12T03:04:15.087Z,99365.69
2022-12-12T03:07:00.049Z,99368.31
2022-12-12T03:09:27.676Z,99370.00
2022-12-12T03:11:55.283Z,99364.75
2022-12-12T03:14:22.875Z,99367.28
2022-12-12T03:16:50.591Z,99365.59
2022-12-12T03:19:18.202Z,99360.28
2022-12-12T03:21:46.875Z,99360.19
2022-12-12T03:24:14.494Z,99360.97
2022-12-12T03:26:42.116Z,99365.28
2022-12-12T03:29:09.695Z,99361.88
2022-12-12T03:31:37.526Z,99359.34
2022-12-12T03:34:08.290Z,99361.19
2022-12-12T03:36:35.847Z,99354.28
2022-12-12T03:39:03.802Z,99358.66
2022-12-12T03:41:31.384Z,99366.50
2022-12-12T03:43:58.953Z,99350.03
2022-12-12T03:46:27.883Z,99354.28
2022-12-12T03:48:55.663Z,99355.97
2022-12-12T03:51:23.643Z,99350.72
2022-12-12T03:53:51.296Z,99353.34
2022-12-12T03:56:19.337Z,99354.28
2022-12-12T03:58:46.890Z,99359.50
2022-12-12T04:01:14.581Z,99363.88
2022-12-12T04:03:42.613Z,99366.59
2022-12-12T04:06:28.652Z,99367.44
2022-12-12T04:09:13.739Z,99362.19
2022-12-12T04:11:58.738Z,99364.81
2022-12-12T04:14:26.685Z,99371.00
2022-12-12T04:17:00.861Z,99369.31
2022-12-12T04:19:42.344Z,99370.13
2022-12-12T04:22:27.677Z,99363.13
2022-12-12T04:24:57.020Z,99366.59
2022-12-12T04:27:24.632Z,99370.13
2022-12-12T04:29:52.253Z,99376.25
2022-12-12T04:32:19.815Z,99368.44
2022-12-12T04:34:48.336Z,99369.31
2022-12-12T04:37:16.947Z,99375.38
2022-12-12T04:39:44.531Z,99381.31
2022-12-12T04:42:12.139Z,99380.47
2022-12-12T04:44:39.756Z,99379.63
2022-12-12T04:47:07.323Z,99381.31
2022-12-12T04:49:36.687Z,99388.34
2022-12-12T04:52:04.298Z,99384.88
2022-12-12T04:54:31.890Z,99385.81
2022-12-12T04:56:59.702Z,99391.03
2022-12-12T04:59:27.785Z,99384.03
2022-12-12T05:01:55.716Z,99387.56
2022-12-12T05:04:23.324Z,99389.34
2022-12-12T05:06:50.948Z,99388.66
2022-12-12T05:09:18.537Z,99392.28
2022-12-12T05:11:46.129Z,99395.81
2022-12-12T05:14:14.139Z,99395.06
2022-12-12T05:16:41.782Z,99386.41
2022-12-12T05:19:09.433Z,99392.59
2022-12-12T05:21:37.574Z,99390.97
2022-12-12T05:24:05.196Z,99388.34
2022-12-12T05:26:33.128Z,99396.13
2022-12-12T05:29:06.723Z,99391.75
2022-12-12T05:31:34.979Z,99396.13
2022-12-12T05:34:02.606Z,99396.13
2022-12-12T05:36:30.177Z,99397.06
2022-12-12T05:38:59.593Z,99405.00
2022-12-12T05:41:27.251Z,99403.22
2022-12-12T05:43:54.842Z,99404.94
2022-12-12T05:46:22.543Z,99397.81
2022-12-12T05:48:50.924Z,99402.13
2022-12-12T05:51:19.279Z,99401.06
2022-12-12T05:53:47.485Z,99407.00
2022-12-12T05:56:15.144Z,99405.09
2022-12-12T05:58:42.748Z,99402.22
2022-12-12T06:01:10.461Z,99411.63
2022-12-12T06:03:39.078Z,99412.47
2022-12-12T06:06:06.741Z,99412.47
2022-12-12T06:08:34.431Z,99414.09
2022-12-12T06:11:02.118Z,99411.41
2022-12-12T06:13:29.706Z,99410.47
2022-12-12T06:15:57.700Z,99408.69
2022-12-12T06:18:25.369Z,99401.69
2022-12-12T06:20:52.983Z,99407.84
2022-12-12T06:23:20.609Z,99415.03
2022-12-12T06:25:48.711Z,99421.34
2022-12-12T06:28:16.649Z,99418.94
2022-12-12T06:30:44.272Z,99417.50
2022-12-12T06:33:12.299Z,99423.75
2022-12-12T06:35:39.891Z,99426.44
2022-12-12T06:38:07.518Z,99433.38
2022-12-12T06:40:35.664Z,99424.59
2022-12-12T06:43:03.348Z,99433.06
2022-12-12T06:45:30.999Z,99433.75
2022-12-12T06:47:58.732Z,99437.94
2022-12-12T06:50:26.324Z,99434.22
2022-12-12T06:52:54.742Z,99434.22
2022-12-12T06:55:22.424Z,99431.59
2022-12-12T06:57:50.072Z,99437.75
2022-12-12T07:00:17.763Z,99433.53
2022-12-12T07:02:45.485Z,99431.06
2022-12-12T07:05:14.474Z,99430.38
2022-12-12T07:07:42.319Z,99431.38
2022-12-12T07:10:10.053Z,99432.38
2022-12-12T07:12:37.693Z,99441.16
2022-12-12T07:15:05.343Z,99436.09
2022-12-12T07:17:33.977Z,99441.31
2022-12-12T07:20:01.637Z,99437.91
2022-12-12T07:22:29.338Z,99439.69
2022-12-12T07:24:57.102Z,99443.16
2022-12-12T07:27:24.719Z,99444.00
2022-12-12T07:29:52.971Z,99439.63
2022-12-12T07:32:20.646Z,99447.50
2022-12-12T07:34:48.294Z,99439.63
2022-12-12T07:37:15.978Z,99442.16
2022-12-12T07:39:43.710Z,99447.41
2022-12-12T07:42:11.669Z,99445.78
2022-12-12T07:44:39.352Z,99456.25
2022-12-12T07:47:07.198Z,99456.19
2022-12-12T07:49:34.934Z,99457.88
2022-12-12T07:52:03.107Z,99458.75
2022-12-12T07:54:33.022Z,99458.75
2022-12-12T07:57:01.017Z,99465.69
2022-12-12T07:59:28.665Z,99467.31
2022-12-12T08:01:56.604Z,99470.69
2022-12-12T08:04:24.473Z,99468.00
2022-12-12T08:07:00.685Z,99479.25
2022-12-12T08:09:30.628Z,99480.13
2022-12-12T08:11:58.669Z,99480.03
2022-12-12T08:14:26.545Z,99481.66
2022-12-12T08:16:55.713Z,99478.97
2022-12-12T08:19:23.377Z,99477.97
2022-12-12T08:21:51.197Z,99490.97
2022-12-12T08:24:18.956Z,99483.03
2022-12-12T08:26:46.646Z,99489.06
2022-12-12T08:29:14.391Z,99482.81
2022-12-12T08:31:42.298Z,99488.81
2022-12-12T08:34:10.435Z,99482.56
2022-12-12T08:36:38.144Z,99483.28
2022-12-12T08:39:05.831Z,99487.59
2022-12-12T08:41:33.822Z,99496.25
2022-12-12T08:44:01.486Z,99494.47
2022-12-12T08:46:29.279Z,99491.59
2022-12-12T08:48:56.981Z,99497.63
2022-12-12T08:51:24.742Z,99496.59
2022-12-12T08:53:53.426Z,99489.59
2022-12-12T08:56:21.505Z,99496.59
2022-12-12T08:58:49.254Z,99495.78
2022-12-12T09:01:17.091Z,99507.28
2022-12-12T09:03:44.974Z,99510.88
2022-12-12T09:06:14.435Z,99505.72
2022-12-12T09:08:42.257Z,99511.81
2022-12-12T09:11:09.976Z,99510.13
2022-12-12T09:13:37.914Z,99520.78
2022-12-12T09:16:05.775Z,99520.84
2022-12-12T09:18:38.379Z,99523.41
2022-12-12T09:21:07.778Z,99516.13
2022-12-12T09:23:35.563Z,99522.00
2022-12-12T09:26:03.231Z,99522.78
2022-12-12T09:28:31.351Z,99527.03
2022-12-12T09:30:59.568Z,99526.84
2022-12-12T09:33:27.647Z,99529.25
2022-12-12T09:35:55.559Z,99528.88
2022-12-12T09:38:23.559Z,99532.63
2022-12-12T09:40:51.715Z,99527.84
2022-12-12T09:43:26.183Z,99527.66
2022-12-12T09:45:57.285Z,99533.72
2022-12-12T09:48:25.224Z,99528.47
2022-12-12T09:50:53.010Z,99532.03
2022-12-12T09:53:22.506Z,99524.13
2022-12-12T09:55:50.570Z,99529.41
2022-12-12T09:58:18.471Z,99530.97
2022-12-12T10:00:46.256Z,99529.97
2022-12-12T10:03:14.049Z,99527.97
2022-12-12T10:05:43.134Z,99528.66
2022-12-12T10:08:11.062Z,99524.03
2022-12-12T10:10:39.058Z,99512.41
2022-12-12T10:13:06.886Z,99516.47
2022-12-12T10:15:34.720Z,99519.66
2022-12-12T10:18:03.556Z,99516.78
2022-12-12T10:20:31.397Z,99524.72
2022-12-12T10:22:59.434Z,99525.41
2022-12-12T10:25:27.513Z,99520.78
2022-12-12T10:27:55.415Z,99516.94
2022-12-12T10:30:25.009Z,99519.16
2022-12-12T10:32:52.882Z,99512.81
2022-12-12T10:35:26.442Z,99519.69
2022-12-12T10:37:54.803Z,99518.56
2022-12-12T10:40:22.562Z,99515.59
2022-12-12T10:42:51.533Z,99512.56
2022-12-12T10:45:19.390Z,99520.69
2022-12-12T10:47:47.223Z,99514.06
2022-12-12T10:50:15.525Z,99513.56
2022-12-12T10:52:43.534Z,99502.56
2022-12-12T10:55:13.194Z,99505.72
2022-12-12T10:57:41.381Z,99500.94
2022-12-12T11:00:09.776Z,99498.72
2022-12-12T11:02:38.481Z,99495.16
2022-12-12T11:05:06.411Z,99495.16
2022-12-12T11:07:35.491Z,99496.75
2022-12-12T11:10:03.487Z,99495.72
2022-12-12T11:12:31.328Z,99491.41
2022-12-12T11:14:59.324Z,99491.06
2022-12-12T11:17:27.239Z,99488.81
2022-12-12T11:19:55.551Z,99484.63
2022-12-12T11:22:23.553Z,99488.31
2022-12-12T11:24:51.413Z,99485.84
2022-12-12T11:27:19.636Z,99486.53
2022-12-12T11:29:48.022Z,99483.91
2022-12-12T11:32:16.624Z,99483.16
2022-12-12T11:34:44.596Z,99475.94
2022-12-12T11:37:12.494Z,99483.34
2022-12-12T11:39:40.338Z,99483.13
2022-12-12T11:42:08.154Z,99476.41
2022-12-12T11:44:36.802Z,99466.63
2022-12-12T11:47:04.935Z,99455.78
2022-12-12T11:49:32.865Z,99455.47
2022-12-12T11:52:01.394Z,99445.59
2022-12-12T11:54:29.275Z,99438.28
2022-12-12T11:56:59.484Z,99440.38
2022-12-12T11:59:27.444Z,99439.09
2022-12-12T12:01:55.400Z,99442.56
2022-12-12T12:04:23.307Z,99435.00
2022-12-12T12:06:51.220Z,99440.66
2022-12-12T12:09:20.529Z,99431.72
2022-12-12T12:11:48.483Z,99437.94
2022-12-12T12:14:16.461Z,99429.50
2022-12-12T12:16:47.123Z,99421.94
2022-12-12T12:19:15.160Z,99431.13
2022-12-12T12:21:43.914Z,99421.84
2022-12-12T12:24:11.792Z,99431.50
2022-12-12T12:26:39.739Z,99425.66
2022-12-12T12:29:07.775Z,99429.78
2022-12-12T12:31:35.658Z,99432.13
2022-12-12T12:34:04.653Z,99432.53
2022-12-12T12:36:34.257Z,99441.00
2022-12-12T12:39:02.146Z,99441.09
2022-12-12T12:41:30.116Z,99441.97
2022-12-12T12:43:58.198Z,99449.03
2022-12-12T12:46:27.679Z,99444.09
2022-12-12T12:48:55.825Z,99457.31
2022-12-12T12:51:23.845Z,99447.13
2022-12-12T12:53:53.778Z,99449.56
2022-12-12T12:56:26.067Z,99440.78
2022-12-12T12:58:55.964Z,99445.31
2022-12-12T13:01:23.828Z,99434.13
2022-12-12T13:03:51.785Z,99433.38
2022-12-12T13:06:19.705Z,99432.84
2022-12-12T13:08:47.546Z,99440.78
2022-12-12T13:11:16.365Z,99442.53
2022-12-12T13:13:44.320Z,99443.16
2022-12-12T13:16:12.184Z,99440.41
2022-12-12T13:18:47.291Z,99445.88
2022-12-12T13:21:15.359Z,99442.34
2022-12-12T13:23:47.448Z,99441.69
2022-12-12T13:26:15.204Z,99444.44
2022-12-12T13:28:43.083Z,99437.06
2022-12-12T13:31:13.200Z,99439.47
2022-12-12T13:33:41.652Z,99439.31
2022-12-12T13:36:09.937Z,99440.03
2022-12-12T13:38:37.790Z,99441.56
2022-12-12T13:41:06.768Z,99433.41
2022-12-12T13:43:34.751Z,99433.69
2022-12-12T13:46:02.657Z,99442.78
2022-12-12T13:48:30.937Z,99450.41
2022-12-12T13:50:58.849Z,99451.59
2022-12-12T13:53:26.826Z,99445.59
2022-12-12T13:55:54.912Z,99451.81
2022-12-12T13:58:22.715Z,99451.91
2022-12-12T14:00:54.296Z,99447.56
2022-12-12T14:03:22.194Z,99455.47
2022-12-12T14:05:50.241Z,99453.59
2022-12-12T14:08:18.529Z,99443.56
2022-12-12T14:10:46.622Z,99447.63
2022-12-12T14:13:16.409Z,99456.81
2022-12-12T14:15:44.348Z,99452.84
2022-12-12T14:18:12.144Z,99453.00
2022-12-12T14:20:39.985Z,99452.31
2022-12-12T14:23:08.296Z,99455.06
2022-12-12T14:25:38.557Z,99463.03
2022-12-12T14:28:06.476Z,99459.53
2022-12-12T14:30:34.561Z,99460.50
2022-12-12T14:33:02.711Z,99469.25
2022-12-12T14:35:30.630Z,99465.00
2022-12-12T14:37:59.073Z,99469.31
2022-12-12T14:40:27.768Z,99464.16
2022-12-12T14:43:19.102Z,99463.50
2022-12-12T14:45:43.630Z,99468.91
2022-12-12T14:48:13.424Z,99469.09
2022-12-12T14:50:41.288Z,99465.72
2022-12-12T14:53:09.295Z,99476.25
2022-12-12T14:55:37.257Z,99471.13
2022-12-12T14:58:05.289Z,99473.97
2022-12-12T15:00:34.579Z,99480.31
2022-12-12T15:03:02.577Z,99480.66
2022-12-12T15:05:31.210Z,99481.09
2022-12-12T15:07:59.334Z,99484.91
2022-12-12T15:10:27.478Z,99481.69
2022-12-12T15:12:57.066Z,99480.16
2022-12-12T15:15:25.057Z,99476.00
2022-12-12T15:17:52.967Z,99476.28
2022-12-12T15:20:20.773Z,99485.16
2022-12-12T15:22:48.690Z,99481.78
2022-12-12T15:25:18.764Z,99477.63
2022-12-12T15:27:53.730Z,99480.34
2022-12-12T15:30:23.614Z,99481.25
2022-12-12T15:32:51.753Z,99489.06
2022-12-12T15:35:20.047Z,99486.44
2022-12-12T15:37:48.076Z,99491.69
2022-12-12T15:40:17.757Z,99482.97
2022-12-12T15:42:45.612Z,99480.44
2022-12-12T15:45:14.049Z,99481.63
2022-12-12T15:47:43.707Z,99485.31
2022-12-12T15:50:11.758Z,99495.16
2022-12-12T15:52:40.085Z,99494.53
2022-12-12T15:55:08.325Z,99498.34
2022-12-12T15:57:36.431Z,99499.53
2022-12-12T16:00:05.170Z,99494.44
2022-12-12T16:02:33.078Z,99497.41
2022-12-12T16:05:01.326Z,99493.31
2022-12-12T16:07:29.279Z,99506.66
2022-12-12T16:09:57.731Z,99500.91
2022-12-12T16:12:26.879Z,99498.59
2022-12-12T16:14:54.916Z,99498.06
2022-12-12T16:17:23.621Z,99502.69
2022-12-12T16:19:51.688Z,99509.97
2022-12-12T16:22:19.628Z,99511.13
2022-12-12T16:24:49.078Z,99499.22
2022-12-12T16:27:16.986Z,99496.16
2022-12-12T16:29:44.962Z,99500.00
2022-12-12T16:32:13.207Z,99496.09
2022-12-12T16:34:41.093Z,99498.25
2022-12-12T16:37:09.705Z,99509.03
2022-12-12T16:39:37.591Z,99516.44
2022-12-12T16:42:05.516Z,99511.47
2022-12-12T16:44:33.489Z,99516.19
2022-12-12T16:47:01.448Z,99509.53
2022-12-12T16:49:30.844Z,99509.81
2022-12-12T16:51:58.818Z,99511.09
2022-12-12T16:54:27.163Z,99516.66
2022-12-12T16:56:54.980Z,99516.84
2022-12-12T16:59:23.081Z,99516.13
2022-12-12T17:01:53.493Z,99510.28
2022-12-12T17:04:21.353Z,99520.06
2022-12-12T17:06:49.391Z,99526.44
2022-12-12T17:09:17.228Z,99528.41
2022-12-12T17:11:45.114Z,99534.69
2022-12-12T17:14:13.755Z,99537.44
2022-12-12T17:16:41.640Z,99534.13
2022-12-12T17:19:09.506Z,99542.97
2022-12-12T17:21:37.513Z,99532.63
2022-12-12T17:24:05.702Z,99541.41
2022-12-12T17:26:35.743Z,99551.09
2022-12-12T17:29:03.779Z,99549.38
2022-12-12T17:31:31.847Z,99544.25
2022-12-12T17:34:00.512Z,99545.06
2022-12-12T17:36:28.795Z,99542.59
2022-12-12T17:38:57.348Z,99536.66
2022-12-12T17:41:25.256Z,99537.78
2022-12-12T17:43:55.539Z,99542.38
2022-12-12T17:46:23.597Z,99538.25
2022-12-12T17:48:51.424Z,99535.03
2022-12-12T17:51:22.610Z,99532.72
2022-12-12T17:53:52.861Z,99539.91
2022-12-12T17:56:20.950Z,99545.34
2022-12-12T17:58:49.957Z,99545.53
2022-12-12T18:01:18.011Z,99546.56
2022-12-12T18:03:47.870Z,99539.78
2022-12-12T18:06:15.999Z,99546.91
2022-12-12T18:08:43.893Z,99538.25
2022-12-12T18:11:11.855Z,99536.72
2022-12-12T18:13:40.228Z,99542.97
2022-12-12T18:16:08.320Z,99542.25
2022-12-12T18:18:36.215Z,99539.91
2022-12-12T18:21:04.532Z,99542.63
2022-12-12T18:23:32.343Z,99528.91
2022-12-12T18:26:00.171Z,99530.81
2022-12-12T18:28:30.669Z,99530.97
2022-12-12T18:30:58.545Z,99542.50
2022-12-12T18:33:26.278Z,99545.25
2022-12-12T18:35:54.352Z,99546.25
2022-12-12T18:38:22.156Z,99544.69
2022-12-12T18:40:51.535Z,99539.63
2022-12-12T18:43:19.747Z,99544.09
2022-12-12T18:45:47.681Z,99541.59
2022-12-12T18:48:15.537Z,99545.19
2022-12-12T18:50:43.498Z,99543.59
2022-12-12T18:53:12.608Z,99536.72
2022-12-12T18:55:40.436Z,99537.72
2022-12-12T18:58:08.704Z,99537.00
2022-12-12T19:00:40.117Z,99532.75
2022-12-12T19:03:08.496Z,99533.66
2022-12-12T19:05:39.502Z,99529.41
2022-12-12T19:08:07.565Z,99531.28
2022-12-12T19:10:35.917Z,99524.41
2022-12-12T19:13:03.751Z,99525.38
2022-12-12T19:15:31.558Z,99532.41
2022-12-12T19:17:59.580Z,99542.13
2022-12-12T19:20:27.499Z,99530.03
2022-12-12T19:22:55.367Z,99541.44
2022-12-12T19:25:23.645Z,99541.53
2022-12-12T19:27:51.482Z,99545.09
2022-12-12T19:30:21.160Z,99547.75
2022-12-12T19:32:49.370Z,99538.25
2022-12-12T19:35:17.348Z,99533.06
2022-12-12T19:37:45.225Z,99540.97
2022-12-12T19:40:13.504Z,99544.59
2022-12-12T19:42:43.145Z,99541.16
2022-12-12T19:45:10.885Z,99539.50
2022-12-12T19:47:39.337Z,99533.59
2022-12-12T19:50:07.156Z,99536.34
2022-12-12T19:52:34.974Z,99540.75
2022-12-12T19:55:03.337Z,99533.91
2022-12-12T19:57:31.206Z,99537.47
2022-12-12T19:59:59.189Z,99534.97
2022-12-12T20:02:27.262Z,99532.47
2022-12-12T20:04:55.238Z,99531.75
2022-12-12T20:07:23.448Z,99529.25
2022-12-12T20:09:51.890Z,99533.63
2022-12-12T20:12:19.724Z,99526.75
2022-12-12T20:14:47.677Z,99523.34
2022-12-12T20:17:15.761Z,99523.41
2022-12-12T20:19:48.056Z,99524.34
2022-12-12T20:22:16.193Z,99522.72
2022-12-12T20:24:45.373Z,99523.63
2022-12-12T20:27:13.286Z,99521.09
2022-12-12T20:29:41.117Z,99525.47
2022-12-12T20:32:14.219Z,99533.38
2022-12-12T20:34:41.941Z,99534.31
2022-12-12T20:37:09.738Z,99540.41
2022-12-12T20:39:37.725Z,99546.53
2022-12-12T20:42:05.608Z,99545.72
2022-12-12T20:44:35.330Z,99547.56
2022-12-12T20:47:03.398Z,99548.38
2022-12-12T20:49:31.297Z,99555.44
2022-12-12T20:51:59.364Z,99558.06
2022-12-12T20:54:28.229Z,99558.06
2022-12-12T20:56:59.041Z,99552.88
2022-12-12T20:59:26.986Z,99546.84
2022-12-12T21:01:55.018Z,99542.56
2022-12-12T21:04:23.815Z,99541.75
2022-12-12T21:06:52.111Z,99547.88
2022-12-12T21:09:25.335Z,99557.50
2022-12-12T21:11:54.185Z,99555.91
2022-12-12T21:14:22.155Z,99562.13
2022-12-12T21:16:50.135Z,99557.03
2022-12-12T21:19:19.161Z,99554.44
2022-12-12T21:21:47.098Z,99557.81
2022-12-12T21:24:15.154Z,99558.53
2022-12-12T21:26:42.972Z,99558.41
2022-12-12T21:29:10.880Z,99559.09
2022-12-12T21:31:39.866Z,99557.25
2022-12-12T21:34:11.168Z,99556.38
2022-12-12T21:36:39.484Z,99560.03
2022-12-12T21:39:07.304Z,99551.50
2022-12-12T21:41:35.524Z,99554.38
2022-12-12T21:44:03.513Z,99556.38
2022-12-12T21:46:34.631Z,99554.97
2022-12-12T21:49:19.944Z,99556.88
2022-12-12T21:51:47.901Z,99559.66
2022-12-12T21:54:15.819Z,99557.22
2022-12-12T21:56:47.192Z,99555.63
2022-12-12T21:59:15.023Z,99557.47
2022-12-12T22:01:42.884Z,99547.16
2022-12-12T22:04:10.760Z,99555.09
2022-12-12T22:06:38.507Z,99549.09
2022-12-12T22:09:06.793Z,99547.44
2022-12-12T22:11:41.832Z,99556.16
2022-12-12T22:14:18.479Z,99546.69
2022-12-12T22:16:46.362Z,99537.16
2022-12-12T22:19:15.351Z,99543.31
2022-12-12T22:21:43.368Z,99536.44
2022-12-12T22:24:11.374Z,99539.97
2022-12-12T22:26:39.236Z,99540.88
2022-12-12T22:29:07.096Z,99547.94
2022-12-12T22:31:35.570Z,99546.22
2022-12-12T22:34:03.623Z,99547.22
2022-12-12T22:36:31.460Z,99539.50
2022-12-12T22:38:59.874Z,99546.53
2022-12-12T22:41:27.776Z,99547.47
2022-12-12T22:43:56.885Z,99555.34
2022-12-12T22:46:25.456Z,99550.16
2022-12-12T22:48:53.319Z,99548.47
2022-12-12T22:51:21.076Z,99551.13
2022-12-12T22:53:48.981Z,99548.53
2022-12-12T22:56:17.219Z,99544.16
2022-12-12T22:58:45.037Z,99545.94
2022-12-12T23:01:13.271Z,99539.84
2022-12-12T23:03:41.053Z,99547.66
2022-12-12T23:06:08.887Z,99544.28
2022-12-12T23:08:39.039Z,99543.41
2022-12-12T23:11:06.857Z,99542.56
2022-12-12T23:13:35.315Z,99546.94
2022-12-12T23:16:03.260Z,99542.59
2022-12-12T23:18:31.160Z,99544.41
2022-12-12T23:20:59.726Z,99539.25
2022-12-12T23:23:28.161Z,99539.25
2022-12-12T23:25:55.920Z,99540.19
2022-12-12T23:28:23.763Z,99545.50
2022-12-12T23:30:51.584Z,99542.94
2022-12-12T23:33:21.495Z,99546.53
2022-12-12T23:35:49.250Z,99542.38
2022-12-12T23:38:16.938Z,99539.06
2022-12-12T23:40:44.600Z,99539.13
2022-12-12T23:43:12.240Z,99527.91
2022-12-12T23:45:40.311Z,99536.66
2022-12-12T23:48:07.966Z,99537.63
2022-12-12T23:50:35.613Z,99538.56
2022-12-12T23:53:09.010Z,99533.44
2022-12-12T23:55:38.285Z,99531.75
2022-12-12T23:58:06.476Z,99533.47
